Time;durP1;ratioP1;P1;durP2;ratioP2;P2;SDS_P1;SDS_P2;PMS_P1;PMS_P2;Temp;Humidity;BMP_temperature;BMP_pressure;BME280_temperature;BME280_humidity;BME280_pressure;Samples;Min_cycle;Max_cycle;Signal;HPM_P1;HPM_P2
2021/01/20 05:01:51;;;;;;;4.75;4.20;;;3.30;50.40;;;;;;5510450;23;20679;-89
2021/01/20 05:04:18;;;;;;;2.35;2.15;;;3.80;50.40;;;;;;4933726;29;20166;-90
2021/01/20 05:06:44;;;;;;;3.10;2.53;;;3.90;50.30;;;;;;4938652;29;20616;-90
2021/01/20 05:09:10;;;;;;;2.85;2.65;;;3.20;50.30;;;;;;4932782;29;20253;-89
2021/01/20 05:11:45;;;;;;;2.87;2.50;;;3.30;50.30;;;;;;4938468;29;20245;-90
2021/01/20 05:14:11;;;;;;;2.28;2.08;;;3.20;50.50;;;;;;4932778;29;20189;-90
2021/01/20 05:16:38;;;;;;;2.35;1.80;;;3.40;50.30;;;;;;4937194;29;20652;-90
2021/01/20 05:19:06;;;;;;;2.20;2.03;;;3.80;51.00;;;;;;4931220;29;20167;-90
2021/01/20 05:21:32;;;;;;;1.83;1.73;;;2.60;49.80;;;;;;4937591;29;20507;-90
2021/01/20 05:24:20;;;;;;;3.70;2.72;;;3.30;51.10;;;;;;4930785;29;20217;-90
2021/01/20 05:26:46;;;;;;;3.67;2.88;;;3.20;51.00;;;;;;4937050;29;20206;-88
2021/01/20 05:29:13;;;;;;;2.83;2.58;;;3.70;50.50;;;;;;4933256;29;20206;-89
2021/01/20 05:31:40;;;;;;;2.58;2.38;;;3.10;50.00;;;;;;4937251;29;20175;-88
2021/01/20 05:34:28;;;;;;;2.85;2.63;;;3.70;50.30;;;;;;4931499;29;20194;-87
2021/01/20 05:37:11;;;;;;;4.90;3.50;;;3.60;50.30;;;;;;4939527;29;20217;-90
2021/01/20 05:39:39;;;;;;;3.40;3.10;;;3.70;50.40;;;;;;4940987;29;20428;-91
2021/01/20 05:42:12;;;;;;;2.88;2.63;;;4.10;50.50;;;;;;4935974;29;20255;-90
2021/01/20 05:44:39;;;;;;;4.05;3.65;;;3.60;49.70;;;;;;4941843;29;20221;-89
2021/01/20 05:47:11;;;;;;;4.63;4.22;;;3.90;49.90;;;;;;4936148;29;20177;-90
2021/01/20 05:49:37;;;;;;;3.60;3.30;;;4.10;49.10;;;;;;4941334;29;20201;-90
2021/01/20 05:52:11;;;;;;;3.33;3.03;;;4.10;49.40;;;;;;4935171;29;20171;-90
2021/01/20 05:54:38;;;;;;;3.78;3.35;;;4.20;49.00;;;;;;4941230;29;20659;-88
2021/01/20 05:57:12;;;;;;;3.70;3.40;;;4.00;49.20;;;;;;4936191;29;20185;-90
2021/01/20 05:59:41;;;;;;;4.47;4.00;;;4.10;49.00;;;;;;4941739;29;20161;-90
2021/01/20 06:02:21;;;;;;;23.00;10.23;;;4.40;48.70;;;;;;4935748;29;20225;-90
2021/01/20 06:04:48;;;;;;;16.85;8.70;;;4.10;48.80;;;;;;4941598;29;20174;-90
2021/01/20 06:07:15;;;;;;;12.55;6.75;;;4.30;48.70;;;;;;4937884;29;20201;-94
2021/01/20 06:13:02;;;;;;;11.40;5.60;;;4.00;49.80;;;;;;4943528;29;20671;-93
2021/01/20 06:18:55;;;;;;;13.30;8.48;;;3.80;50.70;;;;;;4942721;29;20194;-93
2021/01/20 06:21:22;;;;;;;14.52;9.75;;;4.40;51.30;;;;;;4938465;29;20190;-93
2021/01/20 06:24:00;;;;;;;15.68;9.93;;;3.40;49.90;;;;;;4942215;29;20218;-93
2021/01/20 06:26:26;;;;;;;11.05;8.32;;;4.20;50.20;;;;;;4939133;29;20170;-93
2021/01/20 06:28:58;;;;;;;5.90;5.40;;;4.20;50.20;;;;;;4936831;29;20182;-94
2021/01/20 06:31:41;;;;;;;8.88;5.45;;;3.60;50.20;;;;;;4943228;29;20174;-94
2021/01/20 06:34:06;;;;;;;6.30;5.68;;;3.40;50.40;;;;;;4942366;29;20226;-93
2021/01/20 06:36:54;;;;;;;5.87;5.30;;;4.20;50.20;;;;;;4942578;29;20162;-94
2021/01/20 06:39:29;;;;;;;8.00;7.13;;;4.10;50.30;;;;;;4938072;29;20406;-94
2021/01/20 06:42:29;;;;;;;10.77;7.32;;;4.40;50.30;;;;;;4943148;29;20620;-92
2021/01/20 06:45:26;;;;;;;8.50;6.30;;;4.40;49.90;;;;;;4942538;29;20174;-94
2021/01/20 06:48:02;;;;;;;7.20;5.60;;;4.50;49.30;;;;;;4929035;29;20237;-93
2021/01/20 06:50:32;;;;;;;7.32;5.97;;;5.00;49.80;;;;;;4944750;29;20173;-95
2021/01/20 06:53:07;;;;;;;5.80;5.18;;;4.40;49.30;;;;;;4935935;29;20544;-94
2021/01/20 06:55:37;;;;;;;5.18;4.78;;;4.00;48.90;;;;;;4943048;29;20256;-93
2021/01/20 06:58:20;;;;;;;5.05;4.65;;;4.40;48.90;;;;;;4939218;29;20147;-94
2021/01/20 07:01:30;;;;;;;5.57;5.07;;;4.50;49.90;;;;;;4944396;29;20169;-94
2021/01/20 07:04:41;;;;;;;6.82;6.32;;;4.20;49.50;;;;;;4905582;29;20238;-91
2021/01/20 07:07:11;;;;;;;5.60;5.07;;;4.10;50.20;;;;;;4905122;29;20171;-94
2021/01/20 07:09:49;;;;;;;6.72;5.85;;;4.80;49.80;;;;;;4906971;29;20168;-94
2021/01/20 07:12:16;;;;;;;6.97;6.32;;;4.70;50.00;;;;;;4907531;29;20218;-94
2021/01/20 07:14:43;;;;;;;7.38;6.60;;;4.60;49.80;;;;;;4907452;29;20226;-94
2021/01/20 07:17:10;;;;;;;6.90;6.20;;;4.40;50.00;;;;;;4907241;29;20167;-95
2021/01/20 07:19:40;;;;;;;8.10;7.07;;;5.00;49.50;;;;;;4908229;29;20174;-96
2021/01/20 07:22:06;;;;;;;8.23;7.32;;;4.20;49.10;;;;;;4907705;29;20171;-93
2021/01/20 07:24:51;;;;;;;7.97;6.60;;;4.60;49.70;;;;;;4909126;29;20182;-94
2021/01/20 07:27:18;;;;;;;8.77;6.97;;;4.50;50.20;;;;;;4907025;29;20709;-95
2021/01/20 07:29:48;;;;;;;6.35;5.15;;;5.20;50.60;;;;;;4907785;29;20537;-95
2021/01/20 07:32:15;;;;;;;6.63;4.65;;;5.00;50.10;;;;;;4906360;29;20246;-94
2021/01/20 07:34:43;;;;;;;5.38;4.95;;;4.20;49.30;;;;;;4905032;29;20289;-95
2021/01/20 07:37:14;;;;;;;6.43;5.10;;;5.00;50.60;;;;;;4908153;29;20173;-96
2021/01/20 07:39:41;;;;;;;4.82;4.38;;;4.50;49.50;;;;;;4910483;29;20276;-95
2021/01/20 07:42:08;;;;;;;6.60;5.05;;;4.30;49.70;;;;;;4907445;29;20167;-95
2021/01/20 07:45:06;;;;;;;5.40;4.90;;;4.50;49.40;;;;;;4906529;29;20289;-96
2021/01/20 07:47:57;;;;;;;6.07;5.47;;;4.80;49.60;;;;;;4923071;29;20541;-94
2021/01/20 07:50:44;;;;;;;7.40;6.63;;;4.60;49.60;;;;;;4906951;29;20182;-95
2021/01/20 07:53:14;;;;;;;8.00;7.30;;;4.50;50.20;;;;;;4923035;29;20215;-95
2021/01/20 07:56:08;;;;;;;5.60;5.10;;;4.60;49.80;;;;;;4916052;29;20207;-96
2021/01/20 08:09:05;;;;;;;6.03;5.43;;;4.80;49.70;;;;;;4952512;29;20166;-96
2021/01/20 08:11:32;;;;;;;8.43;5.70;;;5.00;49.50;;;;;;4933832;29;20177;-93
2021/01/20 08:14:02;;;;;;;7.00;6.40;;;5.20;48.90;;;;;;4932839;29;20268;-94
2021/01/20 08:16:33;;;;;;;6.97;5.70;;;5.20;48.90;;;;;;4932289;29;20788;-95
2021/01/20 08:19:53;;;;;;;8.30;7.60;;;5.20;49.10;;;;;;4931772;29;20170;-94
2021/01/20 08:22:20;;;;;;;7.05;6.35;;;5.10;48.70;;;;;;4912696;29;20183;-95
2021/01/20 08:24:50;;;;;;;7.18;6.15;;;5.30;48.00;;;;;;4927191;29;20198;-95
2021/01/20 08:27:31;;;;;;;7.88;7.10;;;5.60;47.90;;;;;;4925973;29;20171;-94
2021/01/20 08:29:58;;;;;;;8.07;7.25;;;5.30;48.00;;;;;;4925983;29;20431;-95
2021/01/20 08:33:00;;;;;;;7.78;6.60;;;5.70;48.40;;;;;;4926737;29;20214;-95
2021/01/20 08:35:31;;;;;;;7.32;5.13;;;5.80;48.10;;;;;;4929008;29;20541;-93
2021/01/20 08:37:58;;;;;;;4.95;4.45;;;5.70;47.10;;;;;;4928388;29;20346;-95
2021/01/20 08:40:24;;;;;;;4.05;3.65;;;5.80;47.70;;;;;;4927735;29;20174;-94
2021/01/20 08:42:50;;;;;;;5.18;4.68;;;5.80;47.20;;;;;;4919816;29;20698;-93
2021/01/20 08:45:19;;;;;;;4.78;4.38;;;6.40;47.60;;;;;;4911518;29;20175;-93
2021/01/20 08:48:06;;;;;;;4.22;3.80;;;5.70;46.90;;;;;;4912494;29;20182;-88
2021/01/20 08:50:45;;;;;;;7.82;5.25;;;6.10;46.60;;;;;;4916547;29;20237;-90
2021/01/20 08:53:13;;;;;;;6.10;5.15;;;6.20;47.20;;;;;;4927370;29;20170;-91
2021/01/20 08:55:41;;;;;;;4.65;3.63;;;6.20;47.20;;;;;;4910857;29;20800;-93
2021/01/20 08:58:32;;;;;;;4.40;3.53;;;6.20;46.10;;;;;;4907814;29;20256;-90
2021/01/20 09:07:16;;;;;;;7.03;4.85;;;6.40;46.40;;;;;;4927844;29;20226;-91
2021/01/20 09:09:42;;;;;;;5.50;4.70;;;6.20;45.90;;;;;;4935056;29;20182;-92
2021/01/20 09:15:56;;;;;;;6.88;5.07;;;6.30;46.60;;;;;;4909092;29;20472;-91
2021/01/20 09:18:24;;;;;;;6.72;4.90;;;6.50;46.50;;;;;;4913981;29;20179;-90
2021/01/20 09:20:50;;;;;;;10.82;5.70;;;6.60;45.60;;;;;;4926148;29;20174;-89
2021/01/20 09:27:43;;;;;;;8.60;6.22;;;6.80;46.40;;;;;;4907811;29;20186;-90
2021/01/20 09:30:12;;;;;;;7.65;6.35;;;6.70;45.90;;;;;;4909830;29;20218;-92
2021/01/20 09:35:52;;;;;;;8.20;6.78;;;6.80;45.60;;;;;;4927062;29;20246;-91
2021/01/20 09:41:46;;;;;;;7.88;6.82;;;6.80;46.00;;;;;;4928377;29;20229;-90
2021/01/20 09:44:24;;;;;;;5.03;4.60;;;6.90;45.20;;;;;;4927298;29;20179;-89
2021/01/20 09:46:50;;;;;;;5.55;5.05;;;7.00;44.90;;;;;;4926179;29;20195;-90
2021/01/20 09:49:21;;;;;;;7.13;5.50;;;7.10;44.90;;;;;;4925885;29;20171;-90
2021/01/20 09:51:47;;;;;;;6.30;5.80;;;7.20;44.70;;;;;;4911589;29;20286;-91
2021/01/20 09:54:12;;;;;;;6.70;5.70;;;7.50;44.40;;;;;;4913252;29;20254;-91
2021/01/20 09:56:38;;;;;;;8.50;6.50;;;7.60;43.70;;;;;;4925505;29;20182;-91
2021/01/20 09:59:16;;;;;;;6.50;5.63;;;7.70;43.80;;;;;;4910773;29;20202;-91
2021/01/20 10:01:42;;;;;;;9.85;7.22;;;7.60;43.20;;;;;;4910505;29;20171;-90
2021/01/20 10:04:11;;;;;;;6.60;6.00;;;7.20;42.80;;;;;;4912717;29;20199;-91
2021/01/20 10:06:36;;;;;;;7.50;6.80;;;7.20;43.20;;;;;;4933697;29;20455;-91
2021/01/20 10:09:02;;;;;;;7.30;6.13;;;7.50;43.30;;;;;;4935655;29;20185;-90
2021/01/20 10:11:28;;;;;;;7.67;6.60;;;8.30;43.70;;;;;;4932430;29;20825;-89
2021/01/20 10:14:06;;;;;;;8.10;7.30;;;8.10;43.50;;;;;;4944594;29;20183;-90
2021/01/20 10:16:32;;;;;;;9.20;7.45;;;8.20;43.20;;;;;;4945595;29;20437;-93
2021/01/20 10:19:17;;;;;;;11.60;7.83;;;8.40;42.90;;;;;;4945733;29;20185;-89
2021/01/20 10:21:42;;;;;;;7.20;6.50;;;8.50;42.10;;;;;;4948123;29;20457;-92
2021/01/20 10:24:09;;;;;;;9.00;7.43;;;8.60;42.40;;;;;;4939425;29;20179;-90
2021/01/20 10:26:39;;;;;;;9.20;8.25;;;9.10;42.20;;;;;;4930808;29;20502;-89
2021/01/20 10:29:06;;;;;;;9.90;8.18;;;8.80;40.80;;;;;;4926725;29;20171;-88
2021/01/20 10:31:33;;;;;;;11.15;10.07;;;9.10;40.90;;;;;;4928041;29;20196;-89
2021/01/20 10:34:00;;;;;;;11.80;10.55;;;8.80;40.30;;;;;;4928085;29;20181;-91
2021/01/20 10:36:27;;;;;;;8.80;7.80;;;8.90;40.80;;;;;;4945993;29;20195;-91
2021/01/20 10:38:53;;;;;;;12.98;9.50;;;8.70;40.40;;;;;;4928762;29;20616;-92
2021/01/20 10:41:23;;;;;;;9.68;8.80;;;8.80;40.20;;;;;;4932574;29;20195;-94
2021/01/20 10:43:51;;;;;;;10.95;8.57;;;9.10;39.30;;;;;;4932345;29;20201;-91
2021/01/20 10:46:18;;;;;;;9.25;8.10;;;9.30;39.40;;;;;;4918270;29;20618;-92
2021/01/20 10:48:48;;;;;;;8.70;7.70;;;9.00;39.60;;;;;;4925781;29;20171;-92
2021/01/20 10:51:14;;;;;;;7.97;7.28;;;8.70;39.50;;;;;;4931903;29;20175;-90
2021/01/20 10:53:41;;;;;;;9.53;7.27;;;9.10;40.40;;;;;;4918702;29;20599;-89
2021/01/20 10:56:07;;;;;;;8.05;7.25;;;9.00;40.10;;;;;;4922623;29;20198;-88
2021/01/20 10:58:33;;;;;;;8.13;7.32;;;9.10;40.10;;;;;;4932358;29;20171;-90
2021/01/20 11:01:00;;;;;;;8.25;7.35;;;9.30;40.60;;;;;;4923432;29;20193;-89
2021/01/20 11:03:26;;;;;;;10.82;7.93;;;9.70;39.80;;;;;;4920720;29;20238;-89
2021/01/20 11:05:52;;;;;;;8.90;8.10;;;9.70;39.30;;;;;;4922715;29;20254;-89
2021/01/20 11:08:18;;;;;;;9.25;7.80;;;10.00;38.10;;;;;;4924867;29;20226;-89
2021/01/20 11:10:43;;;;;;;8.43;7.00;;;10.00;37.40;;;;;;4923065;29;20152;-89
2021/01/20 11:13:09;;;;;;;7.67;6.83;;;10.10;36.40;;;;;;4921762;29;20181;-89
2021/01/20 11:15:45;;;;;;;7.63;6.90;;;10.20;36.10;;;;;;4926731;29;20271;-89
2021/01/20 11:18:12;;;;;;;7.32;6.55;;;10.20;36.00;;;;;;4924227;29;20194;-89
2021/01/20 11:20:41;;;;;;;7.90;7.20;;;9.90;35.90;;;;;;4924252;29;20169;-90
2021/01/20 11:23:10;;;;;;;8.52;6.82;;;10.30;35.40;;;;;;4934504;29;20170;-89
2021/01/20 11:25:51;;;;;;;7.75;6.68;;;10.50;35.30;;;;;;4923930;29;20178;-89
2021/01/20 11:28:17;;;;;;;6.95;6.25;;;10.90;35.80;;;;;;4933492;29;20176;-90
2021/01/20 11:30:43;;;;;;;7.13;5.50;;;10.50;35.20;;;;;;4929626;29;20178;-91
2021/01/20 11:33:10;;;;;;;6.18;5.15;;;10.60;34.50;;;;;;4941183;29;20413;-90
2021/01/20 11:35:36;;;;;;;7.68;6.85;;;10.50;34.30;;;;;;4924228;29;20623;-89
2021/01/20 11:38:03;;;;;;;6.93;6.28;;;10.40;34.40;;;;;;4939701;29;20189;-89
2021/01/20 11:40:30;;;;;;;7.50;6.80;;;10.30;34.50;;;;;;4943385;29;20178;-89
2021/01/20 11:42:57;;;;;;;7.93;7.10;;;10.60;35.40;;;;;;4929102;29;20182;-89
2021/01/20 11:45:31;;;;;;;7.22;6.53;;;10.20;34.60;;;;;;4939688;29;20201;-89
2021/01/20 11:47:57;;;;;;;6.68;5.97;;;10.20;34.40;;;;;;4923879;29;20193;-88
2021/01/20 11:50:24;;;;;;;6.30;5.68;;;10.20;35.00;;;;;;4924105;29;20336;-87
2021/01/20 11:52:52;;;;;;;6.65;6.05;;;10.00;34.50;;;;;;4938157;29;20638;-89
2021/01/20 11:55:17;;;;;;;6.88;5.68;;;10.20;34.60;;;;;;4926402;29;20712;-88
2021/01/20 11:57:43;;;;;;;7.97;5.93;;;10.70;34.80;;;;;;4937074;29;20201;-88
2021/01/20 12:00:18;;;;;;;8.13;5.67;;;10.60;34.10;;;;;;4933715;29;20413;-90
2021/01/20 12:02:44;;;;;;;13.50;7.97;;;10.60;33.50;;;;;;4942997;29;20421;-89
2021/01/20 12:05:12;;;;;;;6.43;5.83;;;10.70;32.80;;;;;;4939347;29;20466;-88
2021/01/20 12:07:44;;;;;;;7.07;6.40;;;10.50;32.80;;;;;;4939185;29;20633;-89
2021/01/20 12:10:15;;;;;;;8.00;6.13;;;10.80;33.10;;;;;;4938626;29;20174;-88
2021/01/20 12:12:42;;;;;;;8.65;6.10;;;11.00;33.20;;;;;;4925915;29;20186;-89
2021/01/20 12:15:08;;;;;;;7.70;6.47;;;11.10;33.30;;;;;;4934849;29;20206;-88
2021/01/20 12:17:34;;;;;;;6.88;6.18;;;10.90;33.10;;;;;;4939623;29;20912;-88
2021/01/20 12:20:02;;;;;;;8.43;7.03;;;11.10;33.00;;;;;;4929103;29;20179;-88
2021/01/20 12:22:29;;;;;;;6.82;6.22;;;11.10;32.00;;;;;;4926559;29;20410;-88
2021/01/20 12:24:55;;;;;;;18.25;10.23;;;11.20;32.10;;;;;;4919711;29;20173;-88
2021/01/20 12:27:20;;;;;;;10.53;9.10;;;11.20;31.60;;;;;;4937349;29;20178;-88
2021/01/20 12:29:46;;;;;;;11.80;8.83;;;11.20;32.10;;;;;;4932756;29;20652;-90
2021/01/20 12:32:12;;;;;;;12.30;8.70;;;11.60;32.30;;;;;;4929217;29;20193;-88
2021/01/20 12:34:37;;;;;;;8.03;6.93;;;11.10;31.20;;;;;;4939877;29;20203;-88
2021/01/20 12:37:05;;;;;;;13.43;8.70;;;11.40;31.70;;;;;;4933797;29;20178;-88
2021/01/20 12:39:31;;;;;;;12.93;9.80;;;11.30;31.70;;;;;;4923583;29;20190;-89
2021/01/20 12:41:57;;;;;;;10.93;8.00;;;11.20;32.00;;;;;;4930974;29;20171;-88
2021/01/20 12:44:22;;;;;;;9.80;7.83;;;11.10;32.00;;;;;;4918554;29;20660;-86
2021/01/20 12:46:48;;;;;;;10.07;8.30;;;11.10;32.00;;;;;;4922396;29;20519;-86
2021/01/20 12:49:14;;;;;;;10.87;8.00;;;11.00;32.40;;;;;;4943322;29;20170;-88
2021/01/20 12:51:42;;;;;;;10.27;7.60;;;11.10;32.50;;;;;;4923593;29;20840;-87
2021/01/20 12:54:08;;;;;;;8.98;7.00;;;10.70;32.10;;;;;;4937297;29;20548;-87
2021/01/20 12:56:33;;;;;;;9.77;7.60;;;11.20;32.40;;;;;;4938166;29;20208;-88
2021/01/20 12:59:01;;;;;;;10.47;8.03;;;11.00;32.40;;;;;;4938361;29;20162;-88
2021/01/20 13:01:27;;;;;;;10.53;7.13;;;11.20;32.70;;;;;;4938020;29;20230;-88
2021/01/20 13:03:53;;;;;;;8.10;7.40;;;11.30;31.80;;;;;;4938429;29;20426;-87
2021/01/20 13:06:19;;;;;;;8.60;7.50;;;11.40;32.20;;;;;;4940644;29;20469;-87
2021/01/20 13:09:05;;;;;;;7.70;7.10;;;10.90;31.80;;;;;;4943197;29;20621;-89
2021/01/20 13:11:30;;;;;;;7.93;6.90;;;11.40;32.20;;;;;;4931395;29;20653;-91
2021/01/20 13:13:56;;;;;;;8.70;7.90;;;11.70;32.40;;;;;;4945611;29;20407;-91
2021/01/20 13:16:45;;;;;;;7.00;6.20;;;11.80;31.70;;;;;;4923791;29;20206;-91
2021/01/20 13:19:10;;;;;;;7.53;6.83;;;12.00;31.30;;;;;;4914115;29;20927;-88
2021/01/20 13:21:36;;;;;;;7.13;5.80;;;12.00;30.30;;;;;;4903177;29;20495;-88
2021/01/20 13:24:02;;;;;;;6.83;6.23;;;12.10;30.40;;;;;;4913987;29;20179;-88
2021/01/20 13:26:28;;;;;;;11.23;8.33;;;12.30;30.60;;;;;;4921433;29;20187;-86
2021/01/20 13:28:53;;;;;;;11.50;9.63;;;12.40;30.10;;;;;;4928562;29;20438;-86
2021/01/20 13:31:19;;;;;;;10.70;7.77;;;12.30;30.10;;;;;;4922803;29;20203;-87
2021/01/20 13:33:45;;;;;;;8.30;6.97;;;12.10;30.20;;;;;;4912150;29;20183;-86
2021/01/20 13:39:03;;;;;;;6.53;6.00;;;11.70;31.20;;;;;;3180155;23;20454;-81
2021/01/20 13:41:37;;;;;;;7.20;6.10;;;12.30;31.90;;;;;;1209302;23;22416;-84
2021/01/20 13:50:12;;;;;;;7.60;6.83;;;12.50;30.60;;;;;;4936291;29;20547;-88
2021/01/20 13:52:38;;;;;;;8.67;7.20;;;12.40;30.40;;;;;;4921219;29;20409;-89
2021/01/20 13:55:04;;;;;;;13.40;7.10;;;12.50;29.90;;;;;;4921212;29;20454;-88
2021/01/20 13:57:30;;;;;;;8.73;7.93;;;12.50;29.90;;;;;;4922792;29;20198;-89
2021/01/20 13:59:56;;;;;;;9.60;7.27;;;12.50;29.90;;;;;;4920201;29;20441;-89
2021/01/20 14:02:22;;;;;;;10.13;8.00;;;12.50;29.50;;;;;;4918449;29;20190;-89
2021/01/20 14:04:47;;;;;;;8.40;7.07;;;12.40;29.40;;;;;;4920384;29;20440;-89
2021/01/20 14:07:15;;;;;;;9.00;8.10;;;12.40;29.60;;;;;;4915928;29;20206;-89
2021/01/20 14:09:40;;;;;;;8.03;7.23;;;12.60;30.00;;;;;;4916527;29;20182;-89
2021/01/20 14:12:07;;;;;;;8.83;7.23;;;12.40;30.20;;;;;;4916879;29;20498;-88
2021/01/20 14:14:34;;;;;;;9.83;6.63;;;12.50;30.20;;;;;;4912235;29;20178;-89
2021/01/20 14:17:00;;;;;;;10.07;8.27;;;12.40;30.20;;;;;;4909278;29;20925;-88
2021/01/20 14:19:27;;;;;;;8.00;7.10;;;12.50;30.20;;;;;;4926512;29;20422;-90
2021/01/20 14:21:52;;;;;;;9.73;8.27;;;13.00;30.80;;;;;;4924941;29;20429;-87
2021/01/20 14:24:21;;;;;;;13.67;8.50;;;12.40;30.40;;;;;;4911417;29;20414;-87
2021/01/20 14:26:48;;;;;;;10.03;8.73;;;12.50;30.40;;;;;;4917620;29;20249;-88
2021/01/20 14:29:51;;;;;;;8.63;7.10;;;12.30;30.30;;;;;;4918030;29;20419;-87
2021/01/20 14:32:17;;;;;;;12.63;7.80;;;12.30;30.40;;;;;;4922151;29;20414;-88
2021/01/20 14:34:43;;;;;;;10.67;8.77;;;12.10;30.10;;;;;;4916494;29;20462;-90
2021/01/20 14:37:09;;;;;;;10.20;7.67;;;12.10;30.70;;;;;;4920056;29;20197;-88
2021/01/20 14:39:34;;;;;;;14.70;9.87;;;12.30;31.40;;;;;;4912223;29;20182;-87
2021/01/20 14:42:00;;;;;;;10.60;8.50;;;11.80;31.60;;;;;;4909231;29;20269;-90
2021/01/20 14:44:26;;;;;;;12.10;9.13;;;11.80;31.90;;;;;;4920860;29;20234;-83
2021/01/20 14:46:52;;;;;;;10.93;8.90;;;11.80;31.90;;;;;;4915807;29;20430;-84
2021/01/20 14:49:17;;;;;;;9.07;7.70;;;12.00;31.90;;;;;;4913109;29;20879;-83
2021/01/20 14:51:45;;;;;;;8.10;7.37;;;11.90;32.00;;;;;;4913591;29;20190;-83
2021/01/20 14:54:11;;;;;;;10.97;8.67;;;12.30;32.30;;;;;;4927623;29;20529;-83
2021/01/20 14:56:38;;;;;;;10.10;8.13;;;11.80;32.10;;;;;;4914166;29;20534;-82
2021/01/20 14:59:05;;;;;;;9.27;7.50;;;12.00;32.60;;;;;;4938479;29;20170;-83
2021/01/20 15:01:30;;;;;;;9.90;8.70;;;12.40;33.10;;;;;;4914260;29;20462;-83
2021/01/20 15:03:56;;;;;;;8.10;7.30;;;11.80;33.00;;;;;;4912367;29;20430;-85
2021/01/20 15:06:22;;;;;;;10.53;8.27;;;11.90;33.10;;;;;;4937551;29;20209;-87
2021/01/20 15:08:47;;;;;;;7.33;6.13;;;12.00;33.60;;;;;;4928100;29;20660;-89
2021/01/20 15:11:13;;;;;;;10.33;7.00;;;11.50;32.80;;;;;;4915248;29;20199;-89
2021/01/20 15:13:39;;;;;;;8.47;6.37;;;11.80;33.30;;;;;;4914944;29;20241;-88
2021/01/20 15:16:07;;;;;;;10.10;6.93;;;12.40;32.60;;;;;;4910565;29;20194;-88
2021/01/20 15:18:33;;;;;;;8.97;7.50;;;11.80;32.00;;;;;;4911266;29;20544;-88
2021/01/20 15:20:58;;;;;;;8.43;7.60;;;11.90;32.60;;;;;;4920636;29;20497;-88
2021/01/20 15:23:27;;;;;;;9.40;7.60;;;11.90;32.40;;;;;;4930624;29;20482;-89
2021/01/20 15:25:56;;;;;;;8.03;6.83;;;12.00;32.50;;;;;;4923415;29;20415;-89
2021/01/20 15:28:24;;;;;;;10.33;6.87;;;11.90;32.70;;;;;;4918511;29;20410;-88
2021/01/20 15:30:51;;;;;;;13.13;8.90;;;11.90;32.40;;;;;;4927694;29;20465;-96
2021/01/20 15:33:26;;;;;;;9.52;7.20;;;11.90;33.20;;;;;;4929183;29;20398;-95
2021/01/20 15:35:55;;;;;;;14.05;9.90;;;11.50;33.70;;;;;;4919659;29;20677;-94
2021/01/20 15:38:33;;;;;;;10.48;8.73;;;11.60;34.20;;;;;;4907841;29;20163;-87
2021/01/20 15:40:59;;;;;;;10.07;8.50;;;11.60;34.50;;;;;;4904272;29;20186;-87
2021/01/20 15:43:26;;;;;;;10.52;7.95;;;11.50;35.20;;;;;;4904060;29;20163;-85
2021/01/20 15:45:54;;;;;;;9.25;8.35;;;10.80;35.30;;;;;;4905622;29;20174;-90
2021/01/20 15:48:20;;;;;;;9.07;6.85;;;10.70;35.80;;;;;;4922795;29;20222;-87
2021/01/20 15:50:46;;;;;;;10.43;7.67;;;10.70;35.80;;;;;;4904273;29;20175;-87
2021/01/20 15:53:11;;;;;;;6.97;6.10;;;10.70;36.10;;;;;;4916622;29;20801;-85
2021/01/20 15:55:38;;;;;;;8.00;7.20;;;10.60;36.40;;;;;;4920049;29;20270;-90
2021/01/20 15:58:04;;;;;;;13.98;8.95;;;10.30;36.60;;;;;;4920991;29;20182;-86
2021/01/20 16:00:30;;;;;;;7.97;7.18;;;10.30;37.00;;;;;;4919928;29;20167;-89
2021/01/20 16:03:02;;;;;;;13.97;8.77;;;10.30;37.30;;;;;;4922862;29;20625;-89
2021/01/20 16:05:28;;;;;;;9.93;7.70;;;10.10;37.90;;;;;;4923591;29;20633;-86
2021/01/20 16:07:54;;;;;;;10.50;7.67;;;10.00;38.40;;;;;;4922635;29;20247;-88
2021/01/20 16:10:20;;;;;;;9.53;7.97;;;10.00;38.40;;;;;;4918335;29;20195;-86
2021/01/20 16:12:46;;;;;;;13.43;7.55;;;9.80;39.30;;;;;;4903110;29;20170;-86
2021/01/20 16:15:14;;;;;;;11.10;9.87;;;9.50;39.80;;;;;;4922687;29;20562;-88
2021/01/20 16:17:43;;;;;;;8.15;7.30;;;9.40;39.60;;;;;;4921451;29;20968;-88
2021/01/20 16:20:10;;;;;;;10.98;8.50;;;9.50;39.80;;;;;;4922123;29;20194;-85
2021/01/20 16:22:36;;;;;;;10.45;8.70;;;9.50;40.20;;;;;;4919850;29;20188;-87
2021/01/20 16:25:04;;;;;;;9.97;8.73;;;9.30;40.20;;;;;;4917772;29;20187;-89
2021/01/20 16:27:30;;;;;;;13.35;9.75;;;9.20;40.70;;;;;;4903644;29;20507;-87
2021/01/20 16:29:59;;;;;;;10.90;9.80;;;9.20;41.00;;;;;;4912015;29;21066;-89
2021/01/20 16:32:25;;;;;;;11.90;10.60;;;9.30;40.70;;;;;;4922873;29;20921;-89
2021/01/20 16:34:51;;;;;;;12.35;10.63;;;8.80;40.90;;;;;;4921090;29;20201;-88
2021/01/20 16:37:17;;;;;;;22.13;19.48;;;8.70;41.40;;;;;;4922029;29;20536;-86
2021/01/20 16:39:42;;;;;;;22.30;20.00;;;8.60;41.70;;;;;;4912743;29;20163;-86
2021/01/20 16:42:09;;;;;;;28.10;25.03;;;8.50;42.20;;;;;;4902826;29;20199;-87
2021/01/20 16:44:36;;;;;;;15.35;13.48;;;8.40;42.40;;;;;;4903957;29;20171;-88
2021/01/20 16:47:03;;;;;;;14.90;13.30;;;8.20;42.40;;;;;;4906551;29;20167;-90
2021/01/20 16:49:29;;;;;;;14.38;13.13;;;7.80;44.00;;;;;;4902762;29;20229;-87
2021/01/20 16:51:56;;;;;;;11.68;10.57;;;7.70;44.90;;;;;;4902378;29;20637;-87
2021/01/20 16:54:28;;;;;;;6.25;5.65;;;7.30;44.50;;;;;;4903222;29;20167;-88
2021/01/20 16:56:54;;;;;;;10.70;9.60;;;7.50;45.10;;;;;;4902569;29;20221;-89
2021/01/20 16:59:21;;;;;;;7.43;6.63;;;7.70;45.70;;;;;;4920185;29;20159;-87
2021/01/20 17:01:46;;;;;;;11.02;9.38;;;7.40;45.60;;;;;;4903374;29;20183;-88
2021/01/20 17:04:13;;;;;;;11.47;9.13;;;7.30;45.20;;;;;;4902811;29;20255;-86
2021/01/20 17:06:39;;;;;;;13.95;9.43;;;7.30;44.60;;;;;;4901482;29;20423;-86
2021/01/20 17:09:06;;;;;;;16.15;11.43;;;7.60;44.60;;;;;;4913209;29;20195;-90
2021/01/20 17:11:31;;;;;;;11.13;9.68;;;7.70;44.60;;;;;;4903031;29;20434;-84
2021/01/20 17:13:57;;;;;;;11.23;10.02;;;7.90;44.70;;;;;;4920811;29;20908;-86
2021/01/20 17:16:23;;;;;;;10.10;8.80;;;7.50;44.00;;;;;;4920973;29;20202;-86
2021/01/20 17:18:49;;;;;;;11.27;8.37;;;7.60;44.00;;;;;;4921339;29;20242;-86
2021/01/20 17:21:14;;;;;;;9.45;7.60;;;7.90;44.00;;;;;;4922323;29;20178;-87
2021/01/20 17:23:40;;;;;;;8.00;7.20;;;7.60;43.90;;;;;;4923178;29;20178;-86
2021/01/20 17:26:06;;;;;;;10.50;9.50;;;7.30;44.30;;;;;;4921750;29;20625;-87
2021/01/20 17:28:31;;;;;;;10.10;8.33;;;7.50;44.20;;;;;;4922849;29;20516;-87
2021/01/20 17:30:58;;;;;;;10.43;7.77;;;7.60;44.20;;;;;;4922330;29;20194;-88
2021/01/20 17:33:24;;;;;;;10.35;8.90;;;7.60;44.40;;;;;;4922403;29;20542;-87
2021/01/20 17:35:50;;;;;;;8.43;7.53;;;7.80;44.50;;;;;;4923844;29;20190;-89
2021/01/20 17:38:16;;;;;;;10.43;8.02;;;7.20;44.50;;;;;;4907293;29;20403;-86
2021/01/20 17:40:42;;;;;;;10.90;9.83;;;8.10;44.70;;;;;;4911145;29;20533;-86
2021/01/20 17:43:09;;;;;;;11.48;7.88;;;7.90;44.40;;;;;;4912279;29;20460;-84
2021/01/20 17:45:35;;;;;;;7.63;6.85;;;7.50;44.30;;;;;;4927379;29;20166;-85
2021/01/20 17:48:02;;;;;;;11.93;8.32;;;7.70;44.50;;;;;;4926631;29;20764;-85
2021/01/20 17:50:28;;;;;;;11.90;10.70;;;7.50;44.40;;;;;;4926341;29;20178;-85
2021/01/20 17:52:54;;;;;;;16.23;13.83;;;7.70;44.70;;;;;;4929143;29;20187;-90
2021/01/20 17:55:26;;;;;;;15.37;13.40;;;7.50;44.50;;;;;;4931518;29;20225;-90
2021/01/20 17:57:52;;;;;;;17.90;15.68;;;7.50;44.70;;;;;;4911996;29;20682;-90
2021/01/20 18:00:18;;;;;;;12.65;11.38;;;8.10;44.70;;;;;;4912134;29;20179;-88
2021/01/20 18:02:44;;;;;;;13.10;11.07;;;7.50;45.00;;;;;;4911456;29;20171;-90
2021/01/20 18:05:10;;;;;;;11.63;10.40;;;7.80;44.90;;;;;;4911102;29;20199;-90
2021/01/20 18:07:36;;;;;;;11.85;10.65;;;7.70;45.10;;;;;;4928646;29;20184;-91
2021/01/20 18:10:03;;;;;;;17.80;12.43;;;8.00;45.30;;;;;;4946520;29;20198;-90
2021/01/20 18:12:29;;;;;;;15.00;13.32;;;7.70;45.30;;;;;;4928495;29;20185;-90
2021/01/20 18:14:54;;;;;;;40.43;25.50;;;7.60;44.80;;;;;;4911018;29;20670;-90
2021/01/20 18:17:20;;;;;;;29.83;20.40;;;7.70;44.70;;;;;;4917955;29;20641;-90
2021/01/20 18:19:48;;;;;;;25.30;16.30;;;7.30;44.50;;;;;;4940596;29;20211;-91
2021/01/20 18:22:14;;;;;;;18.25;11.27;;;7.20;44.90;;;;;;4924563;29;20424;-90
2021/01/20 18:24:40;;;;;;;15.60;9.77;;;7.50;45.20;;;;;;4913632;29;20224;-88
2021/01/20 18:27:06;;;;;;;16.40;9.70;;;7.40;44.80;;;;;;4911361;29;20458;-90
2021/01/20 18:29:40;;;;;;;13.82;10.25;;;7.50;44.70;;;;;;4917984;29;20436;-91
2021/01/20 18:32:06;;;;;;;20.95;11.68;;;7.40;45.20;;;;;;4929262;29;20224;-90
2021/01/20 18:34:32;;;;;;;12.67;10.37;;;7.40;45.20;;;;;;4934738;29;20170;-91
2021/01/20 18:36:57;;;;;;;15.73;9.70;;;7.60;45.60;;;;;;4923429;29;20501;-90
2021/01/20 18:39:23;;;;;;;16.20;12.33;;;7.00;45.40;;;;;;4918536;29;20637;-90
2021/01/20 18:41:49;;;;;;;23.30;15.53;;;7.90;46.50;;;;;;4915449;29;20173;-92
2021/01/20 18:44:15;;;;;;;15.97;13.10;;;6.80;44.80;;;;;;4911950;29;20258;-91
2021/01/20 18:46:41;;;;;;;15.40;11.80;;;7.30;45.80;;;;;;4911408;29;20171;-91